DLH2PV EDDH-EDDF
Flight info
| Callsign | DLH2PV |
|---|---|
| Flight time | N/A |
| Altitude | 30000 |
| Route | AMLUH2G/33 AMLUH M852 DENIX DCT RIMET/N0444F310 T157 KOKEB/N0401F230 T157 KERAX KERAX5D |
| Aircraft | A320/M-SDE3FGHIRWY/LB1 |
Departure
| Time | 2026-04-30 21:02 |
|---|---|
| Airport | Hamburg Helmut Schmidt Airport (EDDH) |
Arrival
| Time | N/A |
|---|---|
| Airport | Frankfurt Main Airport (EDDF) |
| Time | Latitude | Longitude | Altitude | Speed | Heading |
|---|---|---|---|---|---|
| 2026-04-30 20:38 | 53.63245 | 10.00353 | 48 ft | 0 kts | 86° |
| 2026-04-30 20:42 | 53.63245 | 10.00352 | 48 ft | 0 kts | 86° |
| 2026-04-30 20:48 | 53.63242 | 10.00296 | 48 ft | 2 kts | 86° |
| 2026-04-30 20:48 | 53.63241 | 10.00268 | 43 ft | 2 kts | 86° |
| 2026-04-30 20:48 | 53.63240 | 10.00239 | 43 ft | 2 kts | 86° |
| 2026-04-30 20:48 | 53.63239 | 10.00211 | 44 ft | 2 kts | 86° |
| 2026-04-30 20:49 | 53.63240 | 10.00182 | 44 ft | 2 kts | 137° |
| 2026-04-30 20:49 | 53.63248 | 10.00173 | 46 ft | 0 kts | 174° |
| 2026-04-30 20:52 | 53.63226 | 10.00176 | 43 ft | 8 kts | 174° |
| 2026-04-30 20:52 | 53.63095 | 10.00192 | 48 ft | 8 kts | 182° |
| 2026-04-30 20:53 | 53.63021 | 10.00133 | 47 ft | 17 kts | 213° |
| 2026-04-30 20:53 | 53.62945 | 10.00048 | 48 ft | 6 kts | 219° |
| 2026-04-30 20:53 | 53.62921 | 10.00000 | 48 ft | 5 kts | 241° |
| 2026-04-30 20:54 | 53.62916 | 9.99982 | 48 ft | 0 kts | 245° |
| 2026-04-30 20:54 | 53.62912 | 9.99966 | 48 ft | 5 kts | 245° |
| 2026-04-30 20:55 | 53.62893 | 9.99903 | 47 ft | 0 kts | 243° |
| 2026-04-30 20:58 | 53.62878 | 9.99852 | 46 ft | 12 kts | 243° |
| 2026-04-30 20:59 | 53.62913 | 9.99703 | 45 ft | 0 kts | 331° |
| 2026-04-30 21:00 | 53.62921 | 9.99696 | 45 ft | 8 kts | 332° |
| 2026-04-30 21:00 | 53.63082 | 9.99558 | 46 ft | 0 kts | 329° |
| 2026-04-30 21:01 | 53.63083 | 9.99558 | 46 ft | 1 kts | 329° |
| 2026-04-30 21:01 | 53.63846 | 9.98900 | 49 ft | 127 kts | 333° |
| 2026-04-30 21:02 | 53.64785 | 9.98110 | 179 ft | 164 kts | 335° |
| 2026-04-30 21:02 | 53.65801 | 9.97271 | 906 ft | 162 kts | 335° |
| 2026-04-30 21:02 | 53.66810 | 9.96399 | 1467 ft | 162 kts | 333° |
| 2026-04-30 21:02 | 53.67877 | 9.95472 | 1820 ft | 184 kts | 334° |
| 2026-04-30 21:03 | 53.69144 | 9.94710 | 2149 ft | 206 kts | 354° |
| 2026-04-30 21:03 | 53.70634 | 9.94672 | 2633 ft | 219 kts | 1° |
| 2026-04-30 21:03 | 53.72146 | 9.94926 | 3472 ft | 220 kts | 22° |
| 2026-04-30 21:03 | 53.73324 | 9.96433 | 4247 ft | 218 kts | 59° |
| 2026-04-30 21:04 | 53.73840 | 9.98827 | 4830 ft | 219 kts | 79° |
| 2026-04-30 21:04 | 53.74137 | 10.01333 | 4971 ft | 216 kts | 85° |
| 2026-04-30 21:04 | 53.73337 | 10.06265 | 5405 ft | 243 kts | 119° |
| 2026-04-30 21:05 | 53.72466 | 10.08820 | 6047 ft | 256 kts | 118° |
| 2026-04-30 21:05 | 53.71877 | 10.10562 | 6645 ft | 259 kts | 118° |
| 2026-04-30 21:05 | 53.70678 | 10.14141 | 7810 ft | 264 kts | 117° |
| 2026-04-30 21:05 | 53.69767 | 10.16859 | 8645 ft | 269 kts | 120° |
| 2026-04-30 21:06 | 53.68589 | 10.19290 | 9487 ft | 276 kts | 136° |
| 2026-04-30 21:06 | 53.66966 | 10.21118 | 10202 ft | 287 kts | 152° |
| 2026-04-30 21:06 | 53.65055 | 10.22174 | 10505 ft | 294 kts | 162° |
| 2026-04-30 21:06 | 53.63005 | 10.23104 | 10774 ft | 317 kts | 162° |
| 2026-04-30 21:07 | 53.60793 | 10.24109 | 11068 ft | 338 kts | 162° |
| 2026-04-30 21:07 | 53.58488 | 10.25155 | 11671 ft | 347 kts | 162° |
| 2026-04-30 21:07 | 53.56143 | 10.26216 | 12402 ft | 351 kts | 162° |
| 2026-04-30 21:07 | 53.53771 | 10.27291 | 13161 ft | 355 kts | 161° |
| 2026-04-30 21:08 | 53.51376 | 10.28381 | 13904 ft | 359 kts | 161° |
| 2026-04-30 21:08 | 53.48953 | 10.29487 | 14577 ft | 363 kts | 161° |
| 2026-04-30 21:08 | 53.46533 | 10.30591 | 15189 ft | 367 kts | 161° |
| 2026-04-30 21:08 | 53.44051 | 10.31720 | 15793 ft | 372 kts | 161° |
| 2026-04-30 21:09 | 53.41541 | 10.32864 | 16407 ft | 376 kts | 161° |
| 2026-04-30 21:09 | 53.39000 | 10.34016 | 16988 ft | 381 kts | 161° |
| 2026-04-30 21:09 | 53.36418 | 10.35177 | 17544 ft | 387 kts | 161° |
| 2026-04-30 21:09 | 53.33798 | 10.36350 | 18118 ft | 392 kts | 161° |
| 2026-04-30 21:10 | 53.31151 | 10.37538 | 18724 ft | 396 kts | 161° |
| 2026-04-30 21:10 | 53.28475 | 10.38741 | 19258 ft | 400 kts | 161° |
| 2026-04-30 21:10 | 53.25814 | 10.39934 | 19808 ft | 403 kts | 161° |
| 2026-04-30 21:10 | 53.23092 | 10.41151 | 20352 ft | 407 kts | 161° |
| 2026-04-30 21:11 | 53.20343 | 10.42377 | 20897 ft | 410 kts | 162° |
| 2026-04-30 21:11 | 53.17574 | 10.43608 | 21436 ft | 414 kts | 162° |
| 2026-04-30 21:11 | 53.14769 | 10.44795 | 21956 ft | 419 kts | 166° |
| 2026-04-30 21:11 | 53.11854 | 10.45374 | 22470 ft | 426 kts | 176° |
| 2026-04-30 21:12 | 53.09885 | 10.45306 | 22802 ft | 430 kts | 182° |
| 2026-04-30 21:12 | 53.06893 | 10.44879 | 23292 ft | 433 kts | 183° |
| 2026-04-30 21:12 | 53.02894 | 10.44315 | 23936 ft | 438 kts | 183° |
| 2026-04-30 21:12 | 52.99847 | 10.43893 | 24340 ft | 441 kts | 183° |
| 2026-04-30 21:13 | 52.96785 | 10.43474 | 24733 ft | 443 kts | 183° |
| 2026-04-30 21:13 | 52.93702 | 10.43058 | 25125 ft | 446 kts | 183° |
| 2026-04-30 21:13 | 52.90602 | 10.42640 | 25499 ft | 448 kts | 183° |
| 2026-04-30 21:13 | 52.88541 | 10.42362 | 25745 ft | 449 kts | 183° |
| 2026-04-30 21:14 | 52.85418 | 10.41943 | 26132 ft | 452 kts | 183° |
| 2026-04-30 21:14 | 52.82278 | 10.41522 | 26502 ft | 454 kts | 183° |
| 2026-04-30 21:14 | 52.79120 | 10.41096 | 26864 ft | 456 kts | 183° |
| 2026-04-30 21:14 | 52.74917 | 10.40519 | 27331 ft | 459 kts | 183° |
| 2026-04-30 21:15 | 52.71726 | 10.40079 | 27676 ft | 461 kts | 184° |
| 2026-04-30 21:15 | 52.69561 | 10.39782 | 27903 ft | 463 kts | 184° |
| 2026-04-30 21:15 | 52.66385 | 10.39349 | 28236 ft | 465 kts | 184° |
| 2026-04-30 21:15 | 52.63156 | 10.38910 | 28567 ft | 467 kts | 184° |
| 2026-04-30 21:16 | 52.59909 | 10.38471 | 28885 ft | 469 kts | 184° |
| 2026-04-30 21:16 | 52.56650 | 10.38032 | 29190 ft | 471 kts | 184° |
| 2026-04-30 21:16 | 52.53378 | 10.37596 | 29500 ft | 473 kts | 184° |
| 2026-04-30 21:16 | 52.49027 | 10.37019 | 29902 ft | 474 kts | 184° |
| 2026-04-30 21:17 | 52.45736 | 10.36586 | 30187 ft | 476 kts | 184° |
| 2026-04-30 21:17 | 52.43504 | 10.36291 | 30361 ft | 477 kts | 184° |
| 2026-04-30 21:17 | 52.37012 | 10.35422 | 30435 ft | 466 kts | 184° |
| 2026-04-30 21:18 | 52.30565 | 10.34558 | 30441 ft | 464 kts | 184° |
| 2026-04-30 21:18 | 52.24138 | 10.33708 | 30436 ft | 463 kts | 184° |
| 2026-04-30 21:19 | 52.17715 | 10.32860 | 30437 ft | 463 kts | 184° |
| 2026-04-30 21:19 | 52.11294 | 10.32007 | 30438 ft | 463 kts | 184° |
| 2026-04-30 21:20 | 52.04919 | 10.31163 | 30433 ft | 463 kts | 184° |
| 2026-04-30 21:20 | 51.98502 | 10.30335 | 30441 ft | 463 kts | 184° |
| 2026-04-30 21:21 | 51.92080 | 10.29494 | 30453 ft | 463 kts | 183° |
| 2026-04-30 21:22 | 51.82440 | 10.28249 | 30425 ft | 464 kts | 183° |
| 2026-04-30 21:23 | 51.69606 | 10.26576 | 30421 ft | 465 kts | 183° |
| 2026-04-30 21:23 | 51.59938 | 10.25325 | 30421 ft | 465 kts | 183° |
| 2026-04-30 21:24 | 51.53488 | 10.24498 | 30420 ft | 465 kts | 183° |
| 2026-04-30 21:24 | 51.47081 | 10.23682 | 30426 ft | 465 kts | 182° |
| 2026-04-30 21:25 | 51.37399 | 10.22450 | 30423 ft | 465 kts | 183° |
| 2026-04-30 21:26 | 51.27712 | 10.21553 | 30423 ft | 464 kts | 179° |
| 2026-04-30 21:27 | 51.18069 | 10.21572 | 30420 ft | 464 kts | 178° |
| 2026-04-30 21:27 | 51.11607 | 10.21543 | 30419 ft | 464 kts | 178° |
| 2026-04-30 21:28 | 51.01916 | 10.21327 | 30422 ft | 464 kts | 179° |
| 2026-04-30 21:29 | 50.92229 | 10.21139 | 30416 ft | 464 kts | 178° |
| 2026-04-30 21:29 | 50.82829 | 10.17993 | 30413 ft | 470 kts | 206° |
| 2026-04-30 21:30 | 50.77620 | 10.11828 | 30410 ft | 470 kts | 229° |
| 2026-04-30 21:31 | 50.72642 | 9.98639 | 30411 ft | 468 kts | 245° |
| 2026-04-30 21:31 | 50.69724 | 9.89539 | 30407 ft | 468 kts | 244° |
| 2026-04-30 21:32 | 50.65225 | 9.75880 | 30401 ft | 468 kts | 239° |
| 2026-04-30 21:32 | 50.60974 | 9.68159 | 30407 ft | 468 kts | 219° |
| 2026-04-30 21:33 | 50.52554 | 9.60720 | 30393 ft | 466 kts | 212° |
| 2026-04-30 21:33 | 50.50009 | 9.57580 | 30395 ft | 466 kts | 224° |
| 2026-04-30 21:34 | 50.47880 | 9.53746 | 30409 ft | 466 kts | 235° |
| 2026-04-30 21:34 | 50.44983 | 9.44732 | 30370 ft | 463 kts | 255° |
| 2026-04-30 21:34 | 50.44056 | 9.39889 | 30371 ft | 464 kts | 255° |
| 2026-04-30 21:35 | 50.41819 | 9.30385 | 29997 ft | 469 kts | 243° |
| 2026-04-30 21:35 | 50.40037 | 9.26084 | 29109 ft | 470 kts | 231° |
| 2026-04-30 21:35 | 50.37833 | 9.22359 | 28429 ft | 466 kts | 222° |
| 2026-04-30 21:36 | 50.35302 | 9.19236 | 27637 ft | 463 kts | 212° |
| 2026-04-30 21:36 | 50.32608 | 9.16610 | 26863 ft | 461 kts | 211° |
| 2026-04-30 21:37 | 50.26086 | 9.05850 | 24666 ft | 458 kts | 242° |
| 2026-04-30 21:37 | 50.24795 | 9.01317 | 23957 ft | 456 kts | 250° |
| 2026-04-30 21:37 | 50.23722 | 8.96671 | 23147 ft | 454 kts | 250° |
| 2026-04-30 21:37 | 50.22643 | 8.92040 | 22346 ft | 453 kts | 250° |
| 2026-04-30 21:38 | 50.21557 | 8.87430 | 21564 ft | 452 kts | 250° |
| 2026-04-30 21:38 | 50.20467 | 8.82839 | 20797 ft | 447 kts | 250° |
| 2026-04-30 21:38 | 50.19404 | 8.78368 | 20057 ft | 432 kts | 249° |
| 2026-04-30 21:38 | 50.18376 | 8.74039 | 19343 ft | 421 kts | 249° |
| 2026-04-30 21:39 | 50.17366 | 8.69781 | 18628 ft | 415 kts | 249° |
| 2026-04-30 21:39 | 50.16381 | 8.65629 | 17851 ft | 413 kts | 249° |
| 2026-04-30 21:39 | 50.15393 | 8.61464 | 17064 ft | 406 kts | 249° |
| 2026-04-30 21:39 | 50.14419 | 8.57369 | 16303 ft | 400 kts | 249° |
| 2026-04-30 21:40 | 50.13460 | 8.53340 | 15561 ft | 394 kts | 249° |
| 2026-04-30 21:40 | 50.12511 | 8.49369 | 14837 ft | 388 kts | 249° |
| 2026-04-30 21:40 | 50.11573 | 8.45452 | 14131 ft | 383 kts | 249° |
| 2026-04-30 21:40 | 50.10645 | 8.41584 | 13369 ft | 382 kts | 249° |
| 2026-04-30 21:41 | 50.09707 | 8.37695 | 12583 ft | 380 kts | 248° |
| 2026-04-30 21:41 | 50.08801 | 8.33951 | 11831 ft | 370 kts | 248° |
| 2026-04-30 21:41 | 50.07899 | 8.30231 | 11071 ft | 364 kts | 248° |
| 2026-04-30 21:41 | 50.07009 | 8.26569 | 10328 ft | 359 kts | 247° |
| 2026-04-30 21:42 | 50.06136 | 8.22983 | 9522 ft | 349 kts | 247° |
| 2026-04-30 21:42 | 50.05285 | 8.19490 | 8727 ft | 341 kts | 247° |
| 2026-04-30 21:42 | 50.04455 | 8.16087 | 7952 ft | 333 kts | 247° |
| 2026-04-30 21:42 | 50.03640 | 8.12753 | 7191 ft | 326 kts | 246° |
| 2026-04-30 21:43 | 50.02842 | 8.09487 | 6428 ft | 320 kts | 246° |
| 2026-04-30 21:43 | 50.02007 | 8.06319 | 5682 ft | 310 kts | 237° |